sensor_id;sensor_type;location;lat;lon;timestamp;P1;durP1;ratioP1;P2;durP2;ratioP2
13415;SDS011;6779;50.150;8.680;2023-01-28T00:00:55;3.80;;;3.37;;
13415;SDS011;6779;50.150;8.680;2023-01-28T00:03:20;4.37;;;3.13;;
13415;SDS011;6779;50.150;8.680;2023-01-28T00:05:46;4.57;;;2.70;;
13415;SDS011;6779;50.150;8.680;2023-01-28T00:08:11;3.97;;;2.80;;
13415;SDS011;6779;50.150;8.680;2023-01-28T00:10:38;3.90;;;2.60;;
13415;SDS011;6779;50.150;8.680;2023-01-28T00:13:05;4.17;;;2.80;;
13415;SDS011;6779;50.150;8.680;2023-01-28T00:15:31;4.23;;;3.10;;
13415;SDS011;6779;50.150;8.680;2023-01-28T00:17:56;5.27;;;3.37;;
13415;SDS011;6779;50.150;8.680;2023-01-28T00:20:22;3.03;;;2.70;;
13415;SDS011;6779;50.150;8.680;2023-01-28T00:22:47;5.27;;;3.20;;
13415;SDS011;6779;50.150;8.680;2023-01-28T00:25:13;5.03;;;3.13;;
13415;SDS011;6779;50.150;8.680;2023-01-28T00:27:39;4.20;;;3.27;;
13415;SDS011;6779;50.150;8.680;2023-01-28T00:30:05;4.63;;;2.77;;
13415;SDS011;6779;50.150;8.680;2023-01-28T00:32:31;4.27;;;3.57;;
13415;SDS011;6779;50.150;8.680;2023-01-28T00:34:57;5.30;;;3.13;;
13415;SDS011;6779;50.150;8.680;2023-01-28T00:37:22;3.80;;;3.10;;
13415;SDS011;6779;50.150;8.680;2023-01-28T00:39:48;4.37;;;3.30;;
13415;SDS011;6779;50.150;8.680;2023-01-28T00:42:14;4.63;;;3.47;;
13415;SDS011;6779;50.150;8.680;2023-01-28T00:44:40;5.37;;;3.17;;
13415;SDS011;6779;50.150;8.680;2023-01-28T00:47:05;5.33;;;2.90;;
13415;SDS011;6779;50.150;8.680;2023-01-28T00:49:31;4.20;;;3.00;;
13415;SDS011;6779;50.150;8.680;2023-01-28T00:51:57;4.73;;;3.47;;
13415;SDS011;6779;50.150;8.680;2023-01-28T00:54:22;3.30;;;3.00;;
13415;SDS011;6779;50.150;8.680;2023-01-28T00:56:48;3.70;;;3.07;;
13415;SDS011;6779;50.150;8.680;2023-01-28T00:59:13;5.73;;;3.10;;
13415;SDS011;6779;50.150;8.680;2023-01-28T01:01:39;5.67;;;3.17;;
13415;SDS011;6779;50.150;8.680;2023-01-28T01:04:04;8.43;;;3.30;;
13415;SDS011;6779;50.150;8.680;2023-01-28T01:06:37;4.97;;;3.30;;
13415;SDS011;6779;50.150;8.680;2023-01-28T01:09:04;4.20;;;3.13;;
13415;SDS011;6779;50.150;8.680;2023-01-28T01:11:31;3.80;;;3.30;;
13415;SDS011;6779;50.150;8.680;2023-01-28T01:13:58;5.43;;;3.57;;
13415;SDS011;6779;50.150;8.680;2023-01-28T01:16:28;4.00;;;3.53;;
13415;SDS011;6779;50.150;8.680;2023-01-28T01:18:57;5.30;;;3.50;;
13415;SDS011;6779;50.150;8.680;2023-01-28T01:21:24;5.13;;;3.33;;
13415;SDS011;6779;50.150;8.680;2023-01-28T01:23:52;6.10;;;3.80;;
13415;SDS011;6779;50.150;8.680;2023-01-28T01:26:18;4.97;;;3.27;;
13415;SDS011;6779;50.150;8.680;2023-01-28T01:28:44;3.60;;;2.90;;
13415;SDS011;6779;50.150;8.680;2023-01-28T01:31:16;4.47;;;3.43;;
13415;SDS011;6779;50.150;8.680;2023-01-28T01:33:45;5.10;;;3.50;;
13415;SDS011;6779;50.150;8.680;2023-01-28T01:36:13;4.17;;;3.20;;
13415;SDS011;6779;50.150;8.680;2023-01-28T01:38:39;9.27;;;3.60;;
13415;SDS011;6779;50.150;8.680;2023-01-28T01:41:06;5.40;;;3.50;;
13415;SDS011;6779;50.150;8.680;2023-01-28T01:46:16;5.67;;;3.43;;
13415;SDS011;6779;50.150;8.680;2023-01-28T01:48:45;4.33;;;3.23;;
13415;SDS011;6779;50.150;8.680;2023-01-28T01:51:13;3.87;;;3.00;;
13415;SDS011;6779;50.150;8.680;2023-01-28T01:53:44;4.40;;;2.93;;
13415;SDS011;6779;50.150;8.680;2023-01-28T01:56:13;3.43;;;2.83;;
13415;SDS011;6779;50.150;8.680;2023-01-28T01:58:43;6.30;;;2.90;;
13415;SDS011;6779;50.150;8.680;2023-01-28T02:01:14;3.53;;;3.17;;
13415;SDS011;6779;50.150;8.680;2023-01-28T02:03:49;3.40;;;3.10;;
13415;SDS011;6779;50.150;8.680;2023-01-28T02:06:16;3.87;;;3.10;;
13415;SDS011;6779;50.150;8.680;2023-01-28T02:08:41;3.37;;;3.07;;
13415;SDS011;6779;50.150;8.680;2023-01-28T02:11:09;4.27;;;2.80;;
13415;SDS011;6779;50.150;8.680;2023-01-28T02:13:37;3.33;;;2.87;;
13415;SDS011;6779;50.150;8.680;2023-01-28T02:16:05;4.30;;;3.50;;
13415;SDS011;6779;50.150;8.680;2023-01-28T02:18:32;3.40;;;3.10;;
13415;SDS011;6779;50.150;8.680;2023-01-28T02:24:15;3.50;;;2.80;;
13415;SDS011;6779;50.150;8.680;2023-01-28T02:26:52;3.80;;;3.40;;
13415;SDS011;6779;50.150;8.680;2023-01-28T02:37:37;3.63;;;3.03;;
13415;SDS011;6779;50.150;8.680;2023-01-28T02:40:30;4.83;;;2.97;;
13415;SDS011;6779;50.150;8.680;2023-01-28T02:43:27;3.00;;;2.67;;
13415;SDS011;6779;50.150;8.680;2023-01-28T02:49:05;3.93;;;3.13;;
13415;SDS011;6779;50.150;8.680;2023-01-28T03:00:02;6.03;;;3.50;;
13415;SDS011;6779;50.150;8.680;2023-01-28T03:02:45;4.63;;;3.80;;
13415;SDS011;6779;50.150;8.680;2023-01-28T03:07:55;4.30;;;3.53;;
13415;SDS011;6779;50.150;8.680;2023-01-28T03:10:22;5.77;;;3.53;;
13415;SDS011;6779;50.150;8.680;2023-01-28T03:12:50;4.90;;;3.80;;
13415;SDS011;6779;50.150;8.680;2023-01-28T03:15:38;4.07;;;3.33;;
13415;SDS011;6779;50.150;8.680;2023-01-28T03:18:39;4.03;;;3.30;;
13415;SDS011;6779;50.150;8.680;2023-01-28T03:21:34;4.77;;;3.37;;
13415;SDS011;6779;50.150;8.680;2023-01-28T03:24:34;7.77;;;3.50;;
13415;SDS011;6779;50.150;8.680;2023-01-28T03:27:24;4.03;;;3.63;;
13415;SDS011;6779;50.150;8.680;2023-01-28T03:30:26;6.40;;;3.60;;
13415;SDS011;6779;50.150;8.680;2023-01-28T03:33:15;5.60;;;3.73;;
13415;SDS011;6779;50.150;8.680;2023-01-28T03:36:00;4.20;;;3.23;;
13415;SDS011;6779;50.150;8.680;2023-01-28T03:38:44;8.00;;;3.83;;
13415;SDS011;6779;50.150;8.680;2023-01-28T03:41:18;5.60;;;3.10;;
13415;SDS011;6779;50.150;8.680;2023-01-28T03:43:46;5.43;;;3.40;;
13415;SDS011;6779;50.150;8.680;2023-01-28T03:46:12;6.10;;;3.63;;
13415;SDS011;6779;50.150;8.680;2023-01-28T03:48:38;6.00;;;3.50;;
13415;SDS011;6779;50.150;8.680;2023-01-28T03:51:03;4.20;;;3.57;;
13415;SDS011;6779;50.150;8.680;2023-01-28T03:53:29;4.20;;;3.23;;
13415;SDS011;6779;50.150;8.680;2023-01-28T03:55:54;5.23;;;3.40;;
13415;SDS011;6779;50.150;8.680;2023-01-28T03:58:21;4.37;;;3.63;;
13415;SDS011;6779;50.150;8.680;2023-01-28T04:00:51;4.77;;;3.40;;
13415;SDS011;6779;50.150;8.680;2023-01-28T04:03:18;3.43;;;3.13;;
13415;SDS011;6779;50.150;8.680;2023-01-28T04:06:07;5.23;;;3.63;;
13415;SDS011;6779;50.150;8.680;2023-01-28T04:08:32;4.97;;;3.27;;
13415;SDS011;6779;50.150;8.680;2023-01-28T04:10:57;4.60;;;3.27;;
13415;SDS011;6779;50.150;8.680;2023-01-28T04:13:39;4.83;;;3.70;;
13415;SDS011;6779;50.150;8.680;2023-01-28T04:16:09;5.83;;;3.23;;
13415;SDS011;6779;50.150;8.680;2023-01-28T04:18:35;6.03;;;3.23;;
13415;SDS011;6779;50.150;8.680;2023-01-28T04:21:00;4.47;;;2.90;;
13415;SDS011;6779;50.150;8.680;2023-01-28T04:23:26;4.43;;;2.93;;
13415;SDS011;6779;50.150;8.680;2023-01-28T04:25:53;4.97;;;2.77;;
13415;SDS011;6779;50.150;8.680;2023-01-28T04:28:19;5.90;;;3.17;;
13415;SDS011;6779;50.150;8.680;2023-01-28T04:30:45;3.63;;;2.87;;
13415;SDS011;6779;50.150;8.680;2023-01-28T04:33:10;4.73;;;2.87;;
13415;SDS011;6779;50.150;8.680;2023-01-28T04:35:35;3.93;;;3.00;;
13415;SDS011;6779;50.150;8.680;2023-01-28T04:38:01;3.47;;;2.53;;
13415;SDS011;6779;50.150;8.680;2023-01-28T04:40:27;4.60;;;3.03;;
13415;SDS011;6779;50.150;8.680;2023-01-28T04:42:53;3.30;;;2.80;;
13415;SDS011;6779;50.150;8.680;2023-01-28T04:45:19;4.13;;;2.90;;
13415;SDS011;6779;50.150;8.680;2023-01-28T04:47:45;4.33;;;2.60;;
13415;SDS011;6779;50.150;8.680;2023-01-28T04:50:10;7.37;;;3.13;;
13415;SDS011;6779;50.150;8.680;2023-01-28T04:52:36;5.97;;;2.93;;
13415;SDS011;6779;50.150;8.680;2023-01-28T04:55:01;4.33;;;3.27;;
13415;SDS011;6779;50.150;8.680;2023-01-28T04:57:27;3.80;;;3.20;;
13415;SDS011;6779;50.150;8.680;2023-01-28T04:59:53;5.57;;;3.00;;
13415;SDS011;6779;50.150;8.680;2023-01-28T05:02:18;5.27;;;2.87;;
13415;SDS011;6779;50.150;8.680;2023-01-28T05:04:44;5.23;;;2.83;;
13415;SDS011;6779;50.150;8.680;2023-01-28T05:07:10;3.47;;;2.83;;
13415;SDS011;6779;50.150;8.680;2023-01-28T05:09:35;4.70;;;2.97;;
13415;SDS011;6779;50.150;8.680;2023-01-28T05:12:01;5.73;;;3.13;;
13415;SDS011;6779;50.150;8.680;2023-01-28T05:14:27;3.33;;;2.77;;
13415;SDS011;6779;50.150;8.680;2023-01-28T05:16:52;4.80;;;3.13;;
13415;SDS011;6779;50.150;8.680;2023-01-28T05:19:18;3.77;;;2.57;;
13415;SDS011;6779;50.150;8.680;2023-01-28T05:21:44;4.07;;;2.83;;
13415;SDS011;6779;50.150;8.680;2023-01-28T05:24:09;5.70;;;2.80;;
13415;SDS011;6779;50.150;8.680;2023-01-28T05:26:35;3.87;;;2.70;;
13415;SDS011;6779;50.150;8.680;2023-01-28T05:29:01;3.43;;;2.93;;
13415;SDS011;6779;50.150;8.680;2023-01-28T05:31:27;4.37;;;2.60;;
13415;SDS011;6779;50.150;8.680;2023-01-28T05:33:53;3.70;;;2.63;;
13415;SDS011;6779;50.150;8.680;2023-01-28T05:36:18;3.70;;;2.93;;
13415;SDS011;6779;50.150;8.680;2023-01-28T05:38:44;3.87;;;2.80;;
13415;SDS011;6779;50.150;8.680;2023-01-28T05:41:09;4.17;;;2.63;;
13415;SDS011;6779;50.150;8.680;2023-01-28T05:43:35;3.60;;;3.10;;
13415;SDS011;6779;50.150;8.680;2023-01-28T05:46:01;2.97;;;2.70;;
13415;SDS011;6779;50.150;8.680;2023-01-28T05:48:27;2.90;;;2.60;;
13415;SDS011;6779;50.150;8.680;2023-01-28T05:50:52;3.10;;;2.43;;
13415;SDS011;6779;50.150;8.680;2023-01-28T05:53:18;4.20;;;2.70;;
13415;SDS011;6779;50.150;8.680;2023-01-28T05:55:46;3.10;;;2.80;;
13415;SDS011;6779;50.150;8.680;2023-01-28T05:58:12;3.10;;;2.80;;
13415;SDS011;6779;50.150;8.680;2023-01-28T06:00:38;4.33;;;2.60;;
13415;SDS011;6779;50.150;8.680;2023-01-28T06:03:03;3.70;;;2.40;;
13415;SDS011;6779;50.150;8.680;2023-01-28T06:05:29;4.13;;;2.77;;
13415;SDS011;6779;50.150;8.680;2023-01-28T06:07:54;4.63;;;2.87;;
13415;SDS011;6779;50.150;8.680;2023-01-28T06:10:20;3.00;;;2.70;;
13415;SDS011;6779;50.150;8.680;2023-01-28T06:12:45;3.33;;;2.63;;
13415;SDS011;6779;50.150;8.680;2023-01-28T06:15:11;6.03;;;3.00;;
13415;SDS011;6779;50.150;8.680;2023-01-28T06:17:36;3.97;;;2.93;;
13415;SDS011;6779;50.150;8.680;2023-01-28T06:20:02;4.50;;;2.77;;
13415;SDS011;6779;50.150;8.680;2023-01-28T06:22:28;4.20;;;3.30;;
13415;SDS011;6779;50.150;8.680;2023-01-28T06:24:53;2.93;;;2.70;;
13415;SDS011;6779;50.150;8.680;2023-01-28T06:27:19;4.43;;;2.70;;
13415;SDS011;6779;50.150;8.680;2023-01-28T06:29:45;3.10;;;2.60;;
13415;SDS011;6779;50.150;8.680;2023-01-28T06:32:10;5.97;;;3.20;;
13415;SDS011;6779;50.150;8.680;2023-01-28T06:34:35;4.73;;;2.80;;
13415;SDS011;6779;50.150;8.680;2023-01-28T06:37:01;3.47;;;2.83;;
13415;SDS011;6779;50.150;8.680;2023-01-28T06:39:28;6.90;;;3.00;;
13415;SDS011;6779;50.150;8.680;2023-01-28T06:41:55;4.80;;;3.43;;
13415;SDS011;6779;50.150;8.680;2023-01-28T06:44:21;5.40;;;3.40;;
13415;SDS011;6779;50.150;8.680;2023-01-28T06:46:47;4.10;;;3.27;;
13415;SDS011;6779;50.150;8.680;2023-01-28T06:49:13;4.33;;;3.03;;
13415;SDS011;6779;50.150;8.680;2023-01-28T06:51:39;4.20;;;2.83;;
13415;SDS011;6779;50.150;8.680;2023-01-28T06:54:04;2.77;;;2.57;;
13415;SDS011;6779;50.150;8.680;2023-01-28T06:56:30;5.03;;;3.40;;
13415;SDS011;6779;50.150;8.680;2023-01-28T06:58:55;5.10;;;2.97;;
13415;SDS011;6779;50.150;8.680;2023-01-28T07:01:21;3.80;;;3.10;;
13415;SDS011;6779;50.150;8.680;2023-01-28T07:03:46;5.07;;;3.20;;
13415;SDS011;6779;50.150;8.680;2023-01-28T07:06:12;4.13;;;3.27;;
13415;SDS011;6779;50.150;8.680;2023-01-28T07:08:37;5.30;;;2.97;;
13415;SDS011;6779;50.150;8.680;2023-01-28T07:11:03;5.40;;;3.00;;
13415;SDS011;6779;50.150;8.680;2023-01-28T07:13:29;4.33;;;3.00;;
13415;SDS011;6779;50.150;8.680;2023-01-28T07:15:55;4.50;;;3.40;;
13415;SDS011;6779;50.150;8.680;2023-01-28T07:18:20;4.30;;;3.03;;
13415;SDS011;6779;50.150;8.680;2023-01-28T07:20:46;4.60;;;3.00;;
13415;SDS011;6779;50.150;8.680;2023-01-28T07:23:12;2.90;;;2.60;;
13415;SDS011;6779;50.150;8.680;2023-01-28T07:25:37;2.97;;;2.77;;
13415;SDS011;6779;50.150;8.680;2023-01-28T07:28:03;5.70;;;2.60;;
13415;SDS011;6779;50.150;8.680;2023-01-28T07:30:29;3.77;;;2.70;;
13415;SDS011;6779;50.150;8.680;2023-01-28T07:32:55;2.63;;;2.43;;
13415;SDS011;6779;50.150;8.680;2023-01-28T07:35:22;2.80;;;2.50;;
13415;SDS011;6779;50.150;8.680;2023-01-28T07:37:52;6.17;;;2.90;;
13415;SDS011;6779;50.150;8.680;2023-01-28T07:40:18;2.93;;;2.60;;
13415;SDS011;6779;50.150;8.680;2023-01-28T07:42:45;5.53;;;2.93;;
13415;SDS011;6779;50.150;8.680;2023-01-28T07:45:10;5.13;;;2.50;;
13415;SDS011;6779;50.150;8.680;2023-01-28T07:47:36;3.87;;;2.90;;
13415;SDS011;6779;50.150;8.680;2023-01-28T07:50:01;3.80;;;2.83;;
13415;SDS011;6779;50.150;8.680;2023-01-28T07:52:27;4.97;;;2.70;;
13415;SDS011;6779;50.150;8.680;2023-01-28T07:54:53;4.70;;;3.10;;
13415;SDS011;6779;50.150;8.680;2023-01-28T07:57:18;4.53;;;2.50;;
13415;SDS011;6779;50.150;8.680;2023-01-28T07:59:47;4.80;;;3.03;;
13415;SDS011;6779;50.150;8.680;2023-01-28T08:02:14;4.00;;;2.73;;
13415;SDS011;6779;50.150;8.680;2023-01-28T08:04:41;4.67;;;2.90;;
13415;SDS011;6779;50.150;8.680;2023-01-28T08:07:06;4.13;;;2.70;;
13415;SDS011;6779;50.150;8.680;2023-01-28T08:09:32;2.97;;;2.67;;
13415;SDS011;6779;50.150;8.680;2023-01-28T08:11:58;4.27;;;2.67;;
13415;SDS011;6779;50.150;8.680;2023-01-28T08:14:25;3.83;;;3.17;;
13415;SDS011;6779;50.150;8.680;2023-01-28T08:16:51;4.80;;;2.83;;
13415;SDS011;6779;50.150;8.680;2023-01-28T08:19:17;3.53;;;3.10;;
13415;SDS011;6779;50.150;8.680;2023-01-28T08:21:42;3.63;;;3.10;;
13415;SDS011;6779;50.150;8.680;2023-01-28T08:24:08;3.57;;;3.00;;
13415;SDS011;6779;50.150;8.680;2023-01-28T08:26:33;3.43;;;2.93;;
13415;SDS011;6779;50.150;8.680;2023-01-28T08:28:59;4.43;;;3.10;;
13415;SDS011;6779;50.150;8.680;2023-01-28T08:31:25;3.33;;;2.60;;
13415;SDS011;6779;50.150;8.680;2023-01-28T08:33:53;4.60;;;2.87;;
13415;SDS011;6779;50.150;8.680;2023-01-28T08:36:18;3.43;;;2.97;;
13415;SDS011;6779;50.150;8.680;2023-01-28T08:38:44;4.17;;;2.67;;
13415;SDS011;6779;50.150;8.680;2023-01-28T08:41:09;4.17;;;2.63;;
13415;SDS011;6779;50.150;8.680;2023-01-28T08:43:35;2.50;;;2.30;;
13415;SDS011;6779;50.150;8.680;2023-01-28T08:46:00;4.40;;;2.60;;
13415;SDS011;6779;50.150;8.680;2023-01-28T08:48:28;3.20;;;2.60;;
13415;SDS011;6779;50.150;8.680;2023-01-28T08:50:54;4.33;;;2.70;;
13415;SDS011;6779;50.150;8.680;2023-01-28T08:53:22;3.73;;;3.00;;
13415;SDS011;6779;50.150;8.680;2023-01-28T08:55:48;3.17;;;2.57;;
13415;SDS011;6779;50.150;8.680;2023-01-28T08:58:14;4.53;;;2.77;;
13415;SDS011;6779;50.150;8.680;2023-01-28T09:00:41;3.97;;;2.87;;
13415;SDS011;6779;50.150;8.680;2023-01-28T09:03:07;5.13;;;3.03;;
13415;SDS011;6779;50.150;8.680;2023-01-28T09:05:33;3.80;;;2.90;;
13415;SDS011;6779;50.150;8.680;2023-01-28T09:08:00;3.40;;;2.50;;
13415;SDS011;6779;50.150;8.680;2023-01-28T09:10:27;3.07;;;2.77;;
13415;SDS011;6779;50.150;8.680;2023-01-28T09:12:52;3.50;;;2.83;;
13415;SDS011;6779;50.150;8.680;2023-01-28T09:15:18;2.93;;;2.47;;
13415;SDS011;6779;50.150;8.680;2023-01-28T09:17:44;3.63;;;2.70;;
13415;SDS011;6779;50.150;8.680;2023-01-28T09:20:10;4.13;;;2.70;;
13415;SDS011;6779;50.150;8.680;2023-01-28T09:22:36;5.67;;;3.20;;
13415;SDS011;6779;50.150;8.680;2023-01-28T09:25:02;4.93;;;2.90;;
13415;SDS011;6779;50.150;8.680;2023-01-28T09:27:28;3.33;;;2.63;;
13415;SDS011;6779;50.150;8.680;2023-01-28T09:29:53;4.87;;;3.03;;
13415;SDS011;6779;50.150;8.680;2023-01-28T09:32:18;3.77;;;2.83;;
13415;SDS011;6779;50.150;8.680;2023-01-28T09:34:44;5.27;;;2.67;;
13415;SDS011;6779;50.150;8.680;2023-01-28T09:37:10;3.73;;;2.87;;
13415;SDS011;6779;50.150;8.680;2023-01-28T09:39:35;3.00;;;2.70;;
13415;SDS011;6779;50.150;8.680;2023-01-28T09:42:06;4.00;;;3.20;;
13415;SDS011;6779;50.150;8.680;2023-01-28T09:47:41;3.83;;;2.97;;
13415;SDS011;6779;50.150;8.680;2023-01-28T09:53:46;4.93;;;2.80;;
13415;SDS011;6779;50.150;8.680;2023-01-28T09:55:55;4.50;;;3.27;;
13415;SDS011;6779;50.150;8.680;2023-01-28T09:58:25;5.40;;;3.17;;
13415;SDS011;6779;50.150;8.680;2023-01-28T10:00:52;3.03;;;2.70;;
13415;SDS011;6779;50.150;8.680;2023-01-28T10:03:57;3.23;;;2.90;;
13415;SDS011;6779;50.150;8.680;2023-01-28T10:09:45;5.60;;;3.07;;
13415;SDS011;6779;50.150;8.680;2023-01-28T10:12:25;4.63;;;3.33;;
13415;SDS011;6779;50.150;8.680;2023-01-28T10:17:50;9.03;;;3.23;;
13415;SDS011;6779;50.150;8.680;2023-01-28T10:22:55;6.07;;;3.00;;
13415;SDS011;6779;50.150;8.680;2023-01-28T10:25:32;4.87;;;2.93;;
13415;SDS011;6779;50.150;8.680;2023-01-28T10:27:59;3.87;;;3.17;;
13415;SDS011;6779;50.150;8.680;2023-01-28T10:30:27;3.10;;;2.80;;
13415;SDS011;6779;50.150;8.680;2023-01-28T10:36:01;5.50;;;3.30;;
13415;SDS011;6779;50.150;8.680;2023-01-28T10:38:26;6.07;;;3.30;;
13415;SDS011;6779;50.150;8.680;2023-01-28T10:40:55;5.70;;;3.03;;
13415;SDS011;6779;50.150;8.680;2023-01-28T10:43:25;4.90;;;3.00;;
13415;SDS011;6779;50.150;8.680;2023-01-28T10:45:57;6.17;;;3.53;;
13415;SDS011;6779;50.150;8.680;2023-01-28T10:48:46;7.07;;;3.73;;
13415;SDS011;6779;50.150;8.680;2023-01-28T10:51:33;4.63;;;3.03;;
13415;SDS011;6779;50.150;8.680;2023-01-28T10:54:01;5.00;;;2.73;;
13415;SDS011;6779;50.150;8.680;2023-01-28T10:56:29;5.83;;;2.73;;
13415;SDS011;6779;50.150;8.680;2023-01-28T10:58:57;3.70;;;2.70;;
13415;SDS011;6779;50.150;8.680;2023-01-28T11:01:46;4.47;;;3.33;;
13415;SDS011;6779;50.150;8.680;2023-01-28T11:07:04;4.40;;;3.10;;
13415;SDS011;6779;50.150;8.680;2023-01-28T11:09:43;3.67;;;3.20;;
13415;SDS011;6779;50.150;8.680;2023-01-28T11:12:26;5.43;;;3.33;;
13415;SDS011;6779;50.150;8.680;2023-01-28T11:14:58;5.57;;;3.10;;
13415;SDS011;6779;50.150;8.680;2023-01-28T11:17:26;2.90;;;2.60;;
13415;SDS011;6779;50.150;8.680;2023-01-28T11:19:55;6.20;;;2.47;;
13415;SDS011;6779;50.150;8.680;2023-01-28T11:22:33;4.77;;;3.00;;
13415;SDS011;6779;50.150;8.680;2023-01-28T11:25:02;4.03;;;2.73;;
13415;SDS011;6779;50.150;8.680;2023-01-28T11:27:39;6.17;;;3.27;;
13415;SDS011;6779;50.150;8.680;2023-01-28T11:30:04;6.70;;;3.00;;
13415;SDS011;6779;50.150;8.680;2023-01-28T11:32:40;5.97;;;2.60;;
13415;SDS011;6779;50.150;8.680;2023-01-28T11:35:06;3.13;;;2.30;;
13415;SDS011;6779;50.150;8.680;2023-01-28T11:37:32;4.77;;;2.73;;
13415;SDS011;6779;50.150;8.680;2023-01-28T11:40:00;7.50;;;2.80;;
13415;SDS011;6779;50.150;8.680;2023-01-28T11:42:27;4.23;;;2.93;;
13415;SDS011;6779;50.150;8.680;2023-01-28T11:44:54;4.57;;;2.63;;
13415;SDS011;6779;50.150;8.680;2023-01-28T11:47:23;3.47;;;2.30;;
13415;SDS011;6779;50.150;8.680;2023-01-28T11:52:52;2.93;;;2.40;;
13415;SDS011;6779;50.150;8.680;2023-01-28T11:55:39;4.63;;;2.87;;
13415;SDS011;6779;50.150;8.680;2023-01-28T12:01:01;3.13;;;2.30;;
13415;SDS011;6779;50.150;8.680;2023-01-28T12:03:48;3.87;;;2.93;;
13415;SDS011;6779;50.150;8.680;2023-01-28T12:06:44;3.80;;;2.57;;
13415;SDS011;6779;50.150;8.680;2023-01-28T12:09:22;3.53;;;2.87;;
13415;SDS011;6779;50.150;8.680;2023-01-28T12:18:14;3.83;;;2.77;;
13415;SDS011;6779;50.150;8.680;2023-01-28T12:45:12;4.33;;;3.57;;
13415;SDS011;6779;50.150;8.680;2023-01-28T12:47:43;3.43;;;3.00;;
13415;SDS011;6779;50.150;8.680;2023-01-28T12:53:08;6.17;;;3.20;;
13415;SDS011;6779;50.150;8.680;2023-01-28T12:55:50;5.60;;;2.60;;
13415;SDS011;6779;50.150;8.680;2023-01-28T12:58:32;4.10;;;2.90;;
13415;SDS011;6779;50.150;8.680;2023-01-28T13:01:06;4.97;;;3.00;;
13415;SDS011;6779;50.150;8.680;2023-01-28T13:03:55;3.47;;;2.73;;
13415;SDS011;6779;50.150;8.680;2023-01-28T13:06:32;3.97;;;2.70;;
13415;SDS011;6779;50.150;8.680;2023-01-28T13:09:12;3.23;;;2.53;;
13415;SDS011;6779;50.150;8.680;2023-01-28T13:11:44;3.73;;;2.77;;
13415;SDS011;6779;50.150;8.680;2023-01-28T13:14:12;3.90;;;2.70;;
13415;SDS011;6779;50.150;8.680;2023-01-28T13:16:39;3.33;;;2.53;;
13415;SDS011;6779;50.150;8.680;2023-01-28T13:19:37;2.70;;;2.50;;
13415;SDS011;6779;50.150;8.680;2023-01-28T13:22:24;5.03;;;2.63;;
13415;SDS011;6779;50.150;8.680;2023-01-28T13:24:53;3.10;;;2.60;;
13415;SDS011;6779;50.150;8.680;2023-01-28T13:27:26;3.27;;;2.03;;
13415;SDS011;6779;50.150;8.680;2023-01-28T13:30:00;2.07;;;1.80;;
13415;SDS011;6779;50.150;8.680;2023-01-28T13:33:00;3.77;;;1.83;;
13415;SDS011;6779;50.150;8.680;2023-01-28T13:35:37;2.47;;;1.80;;
13415;SDS011;6779;50.150;8.680;2023-01-28T13:38:08;2.40;;;2.20;;
13415;SDS011;6779;50.150;8.680;2023-01-28T13:40:40;2.37;;;2.10;;
13415;SDS011;6779;50.150;8.680;2023-01-28T13:43:24;2.63;;;1.90;;
13415;SDS011;6779;50.150;8.680;2023-01-28T13:45:56;5.50;;;2.20;;
13415;SDS011;6779;50.150;8.680;2023-01-28T13:48:28;2.83;;;2.00;;
13415;SDS011;6779;50.150;8.680;2023-01-28T13:54:02;2.73;;;2.20;;
13415;SDS011;6779;50.150;8.680;2023-01-28T13:56:35;3.17;;;2.10;;
13415;SDS011;6779;50.150;8.680;2023-01-28T14:10:33;3.57;;;2.60;;
13415;SDS011;6779;50.150;8.680;2023-01-28T14:18:42;3.67;;;1.90;;
13415;SDS011;6779;50.150;8.680;2023-01-28T14:21:13;2.93;;;2.00;;
13415;SDS011;6779;50.150;8.680;2023-01-28T14:23:46;6.33;;;2.77;;
13415;SDS011;6779;50.150;8.680;2023-01-28T14:26:23;3.87;;;2.30;;
13415;SDS011;6779;50.150;8.680;2023-01-28T14:29:11;4.40;;;2.30;;
13415;SDS011;6779;50.150;8.680;2023-01-28T14:31:52;3.70;;;2.63;;
13415;SDS011;6779;50.150;8.680;2023-01-28T14:36:50;4.30;;;2.50;;
13415;SDS011;6779;50.150;8.680;2023-01-28T14:39:22;5.07;;;2.57;;
13415;SDS011;6779;50.150;8.680;2023-01-28T14:41:51;3.63;;;2.50;;
13415;SDS011;6779;50.150;8.680;2023-01-28T14:45:01;2.73;;;2.07;;
13415;SDS011;6779;50.150;8.680;2023-01-28T14:47:12;2.27;;;2.17;;
13415;SDS011;6779;50.150;8.680;2023-01-28T14:55:31;4.00;;;2.50;;
13415;SDS011;6779;50.150;8.680;2023-01-28T14:58:05;3.87;;;2.10;;
13415;SDS011;6779;50.150;8.680;2023-01-28T15:00:39;4.23;;;2.60;;
13415;SDS011;6779;50.150;8.680;2023-01-28T15:03:09;4.37;;;2.83;;
13415;SDS011;6779;50.150;8.680;2023-01-28T15:05:41;3.00;;;2.70;;
13415;SDS011;6779;50.150;8.680;2023-01-28T15:08:07;2.87;;;2.43;;
13415;SDS011;6779;50.150;8.680;2023-01-28T15:10:43;2.93;;;2.07;;
13415;SDS011;6779;50.150;8.680;2023-01-28T15:13:12;2.87;;;2.10;;
13415;SDS011;6779;50.150;8.680;2023-01-28T15:15:45;3.67;;;2.40;;
13415;SDS011;6779;50.150;8.680;2023-01-28T15:18:17;2.13;;;1.93;;
13415;SDS011;6779;50.150;8.680;2023-01-28T15:20:47;2.23;;;2.10;;
13415;SDS011;6779;50.150;8.680;2023-01-28T15:23:16;2.80;;;2.50;;
13415;SDS011;6779;50.150;8.680;2023-01-28T15:25:46;5.57;;;2.57;;
13415;SDS011;6779;50.150;8.680;2023-01-28T15:28:15;2.47;;;2.10;;
13415;SDS011;6779;50.150;8.680;2023-01-28T15:30:49;4.97;;;2.47;;
13415;SDS011;6779;50.150;8.680;2023-01-28T15:33:15;4.53;;;2.43;;
13415;SDS011;6779;50.150;8.680;2023-01-28T15:35:47;2.50;;;2.27;;
13415;SDS011;6779;50.150;8.680;2023-01-28T15:38:17;3.50;;;2.37;;
13415;SDS011;6779;50.150;8.680;2023-01-28T15:40:44;4.87;;;2.40;;
13415;SDS011;6779;50.150;8.680;2023-01-28T15:43:19;4.70;;;2.90;;
13415;SDS011;6779;50.150;8.680;2023-01-28T15:45:50;3.23;;;2.27;;
13415;SDS011;6779;50.150;8.680;2023-01-28T15:48:19;3.40;;;2.67;;
13415;SDS011;6779;50.150;8.680;2023-01-28T15:50:48;3.83;;;3.27;;
13415;SDS011;6779;50.150;8.680;2023-01-28T15:53:23;2.57;;;2.13;;
13415;SDS011;6779;50.150;8.680;2023-01-28T15:55:48;3.40;;;2.70;;
13415;SDS011;6779;50.150;8.680;2023-01-28T15:58:15;2.77;;;2.20;;
13415;SDS011;6779;50.150;8.680;2023-01-28T16:00:42;3.60;;;2.50;;
13415;SDS011;6779;50.150;8.680;2023-01-28T16:03:08;3.93;;;2.23;;
13415;SDS011;6779;50.150;8.680;2023-01-28T16:05:38;4.03;;;3.10;;
13415;SDS011;6779;50.150;8.680;2023-01-28T16:08:17;3.23;;;2.60;;
13415;SDS011;6779;50.150;8.680;2023-01-28T16:11:08;3.50;;;2.80;;
13415;SDS011;6779;50.150;8.680;2023-01-28T16:13:34;5.23;;;2.60;;
13415;SDS011;6779;50.150;8.680;2023-01-28T16:16:05;2.90;;;2.60;;
13415;SDS011;6779;50.150;8.680;2023-01-28T16:21:05;4.27;;;2.43;;
13415;SDS011;6779;50.150;8.680;2023-01-28T16:23:33;5.37;;;2.93;;
13415;SDS011;6779;50.150;8.680;2023-01-28T16:26:00;5.37;;;2.80;;
13415;SDS011;6779;50.150;8.680;2023-01-28T16:28:30;8.10;;;2.73;;
13415;SDS011;6779;50.150;8.680;2023-01-28T16:30:56;3.53;;;3.10;;
13415;SDS011;6779;50.150;8.680;2023-01-28T16:33:23;3.30;;;3.00;;
13415;SDS011;6779;50.150;8.680;2023-01-28T16:35:49;3.80;;;2.50;;
13415;SDS011;6779;50.150;8.680;2023-01-28T16:38:16;4.60;;;2.60;;
13415;SDS011;6779;50.150;8.680;2023-01-28T16:40:42;4.77;;;3.30;;
13415;SDS011;6779;50.150;8.680;2023-01-28T16:43:09;3.40;;;3.10;;
13415;SDS011;6779;50.150;8.680;2023-01-28T16:45:36;5.20;;;3.17;;
13415;SDS011;6779;50.150;8.680;2023-01-28T16:48:01;3.40;;;3.03;;
13415;SDS011;6779;50.150;8.680;2023-01-28T16:50:27;3.53;;;3.07;;
13415;SDS011;6779;50.150;8.680;2023-01-28T16:52:53;4.10;;;3.50;;
13415;SDS011;6779;50.150;8.680;2023-01-28T16:55:20;7.33;;;4.20;;
13415;SDS011;6779;50.150;8.680;2023-01-28T16:57:47;6.47;;;3.97;;
13415;SDS011;6779;50.150;8.680;2023-01-28T17:00:14;5.43;;;4.10;;
13415;SDS011;6779;50.150;8.680;2023-01-28T17:02:42;7.03;;;3.73;;
13415;SDS011;6779;50.150;8.680;2023-01-28T17:05:08;6.03;;;3.60;;
13415;SDS011;6779;50.150;8.680;2023-01-28T17:07:35;6.90;;;4.10;;
13415;SDS011;6779;50.150;8.680;2023-01-28T17:10:01;5.80;;;4.00;;
13415;SDS011;6779;50.150;8.680;2023-01-28T17:12:27;7.07;;;4.23;;
13415;SDS011;6779;50.150;8.680;2023-01-28T17:14:53;7.13;;;4.33;;